createdAt,value
2023-02-08T00:00:16.615Z,99176.97
2023-02-08T00:05:18.780Z,99182.06
2023-02-08T00:10:20.492Z,99176.38
2023-02-08T00:15:22.500Z,99180.31
2023-02-08T00:20:24.166Z,99168.44
2023-02-08T00:25:25.813Z,99168.94
2023-02-08T00:30:27.735Z,99171.41
2023-02-08T00:35:29.714Z,99171.41
2023-02-08T00:40:31.775Z,99169.72
2023-02-08T00:45:34.099Z,99175.34
2023-02-08T00:50:35.790Z,99167.81
2023-02-08T00:55:38.074Z,99155.78
2023-02-08T01:00:40.094Z,99162.00
2023-02-08T01:05:42.090Z,99160.31
2023-02-08T01:10:44.709Z,99160.06
2023-02-08T01:15:46.386Z,99161.75
2023-02-08T01:20:48.062Z,99163.81
2023-02-08T01:25:49.716Z,99157.00
2023-02-08T01:30:52.272Z,99165.16
2023-02-08T01:35:54.037Z,99162.22
2023-02-08T01:40:55.704Z,99155.38
2023-02-08T01:45:57.801Z,99157.00
2023-02-08T01:51:10.685Z,99159.16
2023-02-08T01:56:19.635Z,99149.81
2023-02-08T02:01:21.833Z,99151.97
2023-02-08T02:06:33.100Z,99143.41
2023-02-08T02:11:34.966Z,99144.00
2023-02-08T02:16:37.057Z,99140.09
2023-02-08T02:21:54.100Z,99137.41
2023-02-08T02:27:24.792Z,99131.53
2023-02-08T02:32:38.550Z,99131.13
2023-02-08T02:37:43.784Z,99133.41
2023-02-08T02:43:17.174Z,99133.00
2023-02-08T02:48:26.184Z,99128.22
2023-02-08T02:53:56.471Z,99123.69
2023-02-08T02:59:04.102Z,99111.56
2023-02-08T03:04:40.163Z,99120.88
2023-02-08T03:10:07.696Z,99119.16
2023-02-08T03:15:29.978Z,99120.59
2023-02-08T03:20:53.620Z,99106.22
2023-02-08T03:26:21.003Z,99113.00
2023-02-08T03:31:43.269Z,99112.72
2023-02-08T03:36:53.288Z,99113.63
2023-02-08T03:42:07.036Z,99122.94
2023-02-08T03:47:15.797Z,99127.75
2023-02-08T03:52:18.950Z,99131.44
2023-02-08T03:57:24.104Z,99124.84
2023-02-08T04:02:29.660Z,99116.81
2023-02-08T04:07:31.575Z,99119.53
2023-02-08T04:12:33.222Z,99108.03
2023-02-08T04:17:34.916Z,99115.38
2023-02-08T04:22:36.769Z,99098.38
2023-02-08T04:27:38.632Z,99093.00
2023-02-08T04:32:40.310Z,99076.16
2023-02-08T04:37:41.906Z,99067.50
2023-02-08T04:42:43.625Z,99060.81
2023-02-08T04:47:45.275Z,99060.25
2023-02-08T04:52:46.911Z,99077.63
2023-02-08T04:57:49.771Z,99089.06
2023-02-08T05:02:55.839Z,99077.78
2023-02-08T05:07:57.486Z,99076.78
2023-02-08T05:12:59.853Z,99073.22
2023-02-08T05:18:01.427Z,99080.94
2023-02-08T05:23:03.055Z,99089.63
2023-02-08T05:28:05.711Z,99083.00
2023-02-08T05:33:07.531Z,99086.06
2023-02-08T05:38:09.168Z,99095.91
2023-02-08T05:43:10.834Z,99102.66
2023-02-08T05:48:12.524Z,99108.00
2023-02-08T05:53:14.359Z,99108.00
2023-02-08T05:58:17.006Z,99111.66
2023-02-08T06:03:18.693Z,99106.28
2023-02-08T06:08:20.708Z,99110.50
2023-02-08T06:13:22.392Z,99101.88
2023-02-08T06:18:24.244Z,99107.63
2023-02-08T06:23:26.240Z,99111.38
2023-02-08T06:28:28.027Z,99110.34
2023-02-08T06:33:30.268Z,99115.31
2023-02-08T06:38:32.050Z,99105.84
2023-02-08T06:43:33.843Z,99113.91
2023-02-08T06:48:35.924Z,99113.50
2023-02-08T06:53:37.783Z,99118.44
2023-02-08T06:58:39.764Z,99117.97
2023-02-08T07:03:42.038Z,99119.59
2023-02-08T07:08:43.765Z,99111.50
2023-02-08T07:13:52.107Z,99114.13
2023-02-08T07:18:53.835Z,99107.63
2023-02-08T07:23:55.471Z,99122.34
2023-02-08T07:28:58.589Z,99118.97
2023-02-08T07:34:00.383Z,99117.31
2023-02-08T07:39:02.863Z,99107.19
2023-02-08T07:44:04.805Z,99099.28
2023-02-08T07:49:06.858Z,99102.13
2023-02-08T07:54:08.597Z,99104.00
2023-02-08T07:59:10.836Z,99104.16
2023-02-08T08:04:12.721Z,99107.97
2023-02-08T08:09:15.385Z,99114.75
2023-02-08T08:14:17.218Z,99121.97
2023-02-08T08:19:18.898Z,99127.31
2023-02-08T08:24:20.596Z,99129.00
2023-02-08T08:29:22.302Z,99132.41
2023-02-08T08:34:29.704Z,99116.00
2023-02-08T08:39:32.099Z,99119.09
2023-02-08T08:44:33.872Z,99118.94
2023-02-08T08:49:35.717Z,99122.16
2023-02-08T08:54:37.396Z,99113.09
2023-02-08T08:59:39.342Z,99114.75
2023-02-08T09:04:41.536Z,99108.22
2023-02-08T09:09:47.878Z,99108.72
2023-02-08T09:14:49.523Z,99108.81
2023-02-08T09:19:51.314Z,99090.50
2023-02-08T09:24:53.856Z,99089.69
2023-02-08T09:29:55.565Z,99099.25
2023-02-08T09:34:57.740Z,99090.25
2023-02-08T09:40:00.249Z,99087.31
2023-02-08T09:45:02.256Z,99077.56
2023-02-08T09:50:12.749Z,99081.50
2023-02-08T09:55:49.799Z,99080.44
2023-02-08T10:00:53.360Z,99078.16
2023-02-08T10:05:55.409Z,99077.75
2023-02-08T10:11:09.298Z,99079.34
2023-02-08T10:16:23.753Z,99076.06
2023-02-08T10:21:43.289Z,99075.44
2023-02-08T10:27:01.373Z,99077.66
2023-02-08T10:32:18.192Z,99074.53
2023-02-08T10:37:27.698Z,99062.16
2023-02-08T10:42:32.080Z,99054.25
2023-02-08T10:47:44.168Z,99043.13
2023-02-08T10:52:45.955Z,99044.84
2023-02-08T10:57:50.037Z,99040.94
2023-02-08T11:02:53.016Z,99037.75
2023-02-08T11:08:14.063Z,99028.34
2023-02-08T11:13:20.437Z,99022.81
2023-02-08T11:18:37.908Z,99023.69
2023-02-08T11:23:43.418Z,99014.94
2023-02-08T11:29:18.516Z,98999.78
2023-02-08T11:34:28.572Z,98989.00
2023-02-08T11:39:35.306Z,98984.94
2023-02-08T11:44:43.040Z,98985.97
2023-02-08T11:49:56.257Z,98979.59
2023-02-08T11:55:16.796Z,98980.25
2023-02-08T12:00:21.419Z,98974.19
2023-02-08T12:05:46.694Z,98975.88
2023-02-08T12:11:14.895Z,98986.00
2023-02-08T12:16:50.916Z,98967.38
2023-02-08T12:22:07.956Z,98966.34
2023-02-08T12:27:34.371Z,98964.22
2023-02-08T12:32:46.707Z,98965.72
2023-02-08T12:38:31.322Z,98961.22
2023-02-08T12:43:51.762Z,98941.72
2023-02-08T12:49:30.989Z,98939.53
2023-02-08T12:55:06.325Z,98933.59
2023-02-08T13:00:19.382Z,98916.81
2023-02-08T13:05:22.936Z,98903.66
2023-02-08T13:10:39.254Z,98895.03
2023-02-08T13:16:10.167Z,98898.44
2023-02-08T13:21:16.377Z,98883.88
2023-02-08T13:26:28.026Z,98882.47
2023-02-08T13:31:39.460Z,98869.75
2023-02-08T13:36:51.389Z,98877.59
2023-02-08T13:41:56.352Z,98877.78
2023-02-08T13:46:58.501Z,98874.84
2023-02-08T13:52:02.218Z,98868.91
2023-02-08T13:57:25.852Z,98876.22
2023-02-08T14:02:28.990Z,98868.38
2023-02-08T14:07:42.295Z,98874.59
2023-02-08T14:12:56.763Z,98869.53
2023-02-08T14:18:00.654Z,98873.94
2023-02-08T14:23:06.815Z,98861.50
2023-02-08T14:28:35.723Z,98855.09
2023-02-08T14:33:41.307Z,98855.56
2023-02-08T14:38:53.725Z,98853.75
2023-02-08T14:43:55.545Z,98848.22
2023-02-08T14:48:57.808Z,98846.91
2023-02-08T14:54:15.147Z,98854.19
2023-02-08T14:59:20.762Z,98843.44
2023-02-08T15:04:22.583Z,98849.22
2023-02-08T15:09:30.125Z,98856.16
2023-02-08T15:14:36.193Z,98848.94
2023-02-08T15:19:39.404Z,98849.47
2023-02-08T15:24:50.460Z,98847.56
2023-02-08T15:29:52.521Z,98851.66
2023-02-08T15:35:00.729Z,98849.28
2023-02-08T15:40:04.606Z,98844.25
2023-02-08T15:45:23.474Z,98841.94
2023-02-08T15:50:27.750Z,98852.56
2023-02-08T15:55:39.813Z,98850.56
2023-02-08T16:00:43.432Z,98852.25
2023-02-08T16:05:54.899Z,98845.84
2023-02-08T16:10:59.442Z,98850.75
2023-02-08T16:16:53.653Z,98851.09
2023-02-08T16:22:14.610Z,98847.19
2023-02-08T16:27:25.943Z,98850.41
2023-02-08T16:32:33.470Z,98848.03
2023-02-08T16:37:35.484Z,98854.81
2023-02-08T16:42:42.637Z,98847.88
2023-02-08T16:47:48.548Z,98858.81
2023-02-08T16:52:58.978Z,98851.41
2023-02-08T16:58:00.650Z,98853.44
2023-02-08T17:03:02.429Z,98848.69
2023-02-08T17:08:09.936Z,98849.03
2023-02-08T17:13:21.023Z,98845.97
2023-02-08T17:18:23.148Z,98850.03
2023-02-08T17:23:25.414Z,98848.97
2023-02-08T17:28:27.674Z,98850.13
2023-02-08T17:33:29.377Z,98851.31
2023-02-08T17:38:31.021Z,98859.84
2023-02-08T17:43:32.974Z,98857.41
2023-02-08T17:48:34.679Z,98859.22
2023-02-08T17:53:40.853Z,98857.53
2023-02-08T17:58:42.973Z,98854.16
2023-02-08T18:03:45.686Z,98846.38
2023-02-08T18:08:47.306Z,98841.81
2023-02-08T18:13:51.556Z,98852.03
2023-02-08T18:18:57.542Z,98848.28
2023-02-08T18:24:04.829Z,98842.22
2023-02-08T18:29:06.531Z,98841.25
2023-02-08T18:34:08.129Z,98828.28
2023-02-08T18:39:13.970Z,98833.13
2023-02-08T18:44:16.614Z,98823.69
2023-02-08T18:49:18.272Z,98816.91
2023-02-08T18:54:19.977Z,98828.78
2023-02-08T18:59:21.858Z,98816.44
2023-02-08T19:04:23.546Z,98813.41
2023-02-08T19:09:25.237Z,98810.34
2023-02-08T19:14:26.834Z,98798.84
2023-02-08T19:19:28.482Z,98815.59
2023-02-08T19:24:30.338Z,98816.88
2023-02-08T19:29:33.467Z,98805.47
2023-02-08T19:34:35.071Z,98809.44
2023-02-08T19:39:36.876Z,98806.72
2023-02-08T19:44:38.513Z,98814.38
2023-02-08T19:49:40.136Z,98803.97
2023-02-08T19:54:41.818Z,98809.31
2023-02-08T19:59:43.852Z,98803.50
2023-02-08T20:04:45.687Z,98813.06
2023-02-08T20:09:47.334Z,98802.00
2023-02-08T20:14:48.965Z,98797.66
2023-02-08T20:19:52.393Z,98791.97
2023-02-08T20:24:54.092Z,98782.91
2023-02-08T20:29:56.063Z,98794.66
2023-02-08T20:34:59.836Z,98793.28
2023-02-08T20:40:02.602Z,98785.53
2023-02-08T20:45:06.057Z,98781.84
2023-02-08T20:50:18.156Z,98788.91
2023-02-08T20:55:21.380Z,98789.50
2023-02-08T21:00:27.960Z,98792.66
2023-02-08T21:05:35.152Z,98788.47
2023-02-08T21:10:37.138Z,98785.63
2023-02-08T21:15:43.155Z,98778.88
2023-02-08T21:20:45.036Z,98777.63
2023-02-08T21:25:46.871Z,98780.63
2023-02-08T21:31:11.079Z,98773.88
2023-02-08T21:36:18.745Z,98778.03
2023-02-08T21:41:23.770Z,98771.91
2023-02-08T21:46:27.712Z,98774.19
2023-02-08T21:51:50.427Z,98770.25
2023-02-08T21:56:52.294Z,98769.00
2023-02-08T22:01:54.049Z,98764.19
2023-02-08T22:06:55.870Z,98760.50
2023-02-08T22:11:57.667Z,98749.56
2023-02-08T22:16:59.427Z,98757.78
2023-02-08T22:22:02.298Z,98753.06
2023-02-08T22:27:05.560Z,98753.66
2023-02-08T22:32:09.811Z,98754.25
2023-02-08T22:37:12.154Z,98753.31
2023-02-08T22:42:14.656Z,98745.06
2023-02-08T22:47:17.187Z,98739.44
2023-02-08T22:52:19.684Z,98738.34
2023-02-08T22:57:22.057Z,98736.13
2023-02-08T23:02:24.437Z,98728.69
2023-02-08T23:07:27.201Z,98732.38
2023-02-08T23:12:29.718Z,98732.06
2023-02-08T23:17:31.505Z,98734.59
2023-02-08T23:22:37.541Z,98734.16
2023-02-08T23:27:39.427Z,98732.22
2023-02-08T23:32:41.646Z,98734.09
2023-02-08T23:37:45.118Z,98737.34
2023-02-08T23:42:47.281Z,98741.31
2023-02-08T23:47:49.085Z,98741.59
2023-02-08T23:52:50.925Z,98740.47
2023-02-08T23:57:52.630Z,98734.00
